Time;durP1;ratioP1;P1;durP2;ratioP2;P2;SDS_P1;SDS_P2;PMS_P1;PMS_P2;Temp;Humidity;BMP_temperature;BMP_pressure;BME280_temperature;BME280_humidity;BME280_pressure;Samples;Min_cycle;Max_cycle;Signal;HPM_P1;HPM_P2
2021/12/01 00:01:30;;;;;;;11.88;6.57;;;8.40;96.70;;;;;;4814261;29;20114;-75
2021/12/01 00:03:59;;;;;;;9.38;6.72;;;8.40;96.70;;;;;;4821761;29;20101;-75
2021/12/01 00:06:27;;;;;;;9.55;6.70;;;8.40;96.70;;;;;;4909043;29;20071;-75
2021/12/01 00:08:55;;;;;;;8.85;5.93;;;8.40;96.70;;;;;;4925442;29;20130;-75
2021/12/01 00:11:25;;;;;;;10.25;6.55;;;8.40;96.70;;;;;;4923781;29;20046;-75
2021/12/01 00:13:53;;;;;;;10.30;7.03;;;8.40;96.70;;;;;;4901924;29;20107;-75
2021/12/01 00:16:21;;;;;;;9.60;6.40;;;8.40;96.70;;;;;;4902818;29;20052;-75
2021/12/01 00:18:49;;;;;;;8.60;6.60;;;8.40;96.70;;;;;;4923058;29;20487;-75
2021/12/01 00:21:18;;;;;;;9.57;6.35;;;8.40;96.70;;;;;;4906449;29;20443;-76
2021/12/01 00:23:46;;;;;;;10.57;6.18;;;8.40;96.70;;;;;;4894359;29;20043;-75
2021/12/01 00:26:15;;;;;;;10.52;6.80;;;8.50;96.70;;;;;;4914128;29;20043;-75
2021/12/01 00:28:45;;;;;;;11.90;7.10;;;8.50;96.70;;;;;;4901608;29;20039;-75
2021/12/01 00:31:13;;;;;;;9.75;6.85;;;8.50;96.70;;;;;;4899741;29;20043;-76
2021/12/01 00:33:42;;;;;;;9.45;6.28;;;8.40;96.70;;;;;;4895580;29;20165;-75
2021/12/01 00:36:13;;;;;;;10.70;6.88;;;8.40;96.70;;;;;;4914252;29;20605;-76
2021/12/01 00:38:42;;;;;;;10.40;7.40;;;8.50;96.70;;;;;;4902199;29;20052;-75
2021/12/01 00:41:11;;;;;;;12.73;7.38;;;8.40;96.70;;;;;;4920601;29;20068;-75
2021/12/01 00:43:40;;;;;;;10.70;6.78;;;8.40;96.70;;;;;;4892809;29;20082;-75
2021/12/01 00:46:35;;;;;;;9.10;6.57;;;8.40;96.70;;;;;;4899750;29;20561;-76
2021/12/01 00:49:04;;;;;;;10.38;6.82;;;8.40;96.70;;;;;;4919122;29;20155;-76
2021/12/01 00:51:32;;;;;;;9.60;6.25;;;8.40;96.70;;;;;;4903161;29;20067;-75
2021/12/01 00:54:00;;;;;;;9.52;7.03;;;8.40;96.70;;;;;;4921650;29;20034;-75
2021/12/01 00:56:28;;;;;;;9.52;6.22;;;8.40;96.70;;;;;;4901707;29;20040;-75
2021/12/01 00:58:56;;;;;;;9.38;5.97;;;8.40;96.70;;;;;;4913989;29;20490;-75
2021/12/01 01:01:26;;;;;;;9.10;6.07;;;8.40;96.70;;;;;;4905096;29;20131;-75
2021/12/01 01:03:55;;;;;;;6.88;5.15;;;8.40;96.70;;;;;;4922428;29;20046;-74
2021/12/01 01:06:23;;;;;;;7.25;5.20;;;8.40;96.70;;;;;;4896790;29;20047;-75
2021/12/01 01:08:51;;;;;;;10.27;5.47;;;8.40;96.70;;;;;;4904493;29;20755;-75
2021/12/01 01:16:54;;;;;;;6.55;3.92;;;8.50;96.70;;;;;;4911472;29;20048;-75
2021/12/01 01:19:23;;;;;;;5.00;3.60;;;8.50;96.70;;;;;;4924992;28;20042;-75
2021/12/01 01:21:52;;;;;;;5.30;3.65;;;8.40;96.70;;;;;;4928447;29;20391;-75
2021/12/01 01:24:21;;;;;;;5.65;3.58;;;8.40;96.70;;;;;;4919050;29;20130;-75
2021/12/01 01:26:51;;;;;;;4.80;3.30;;;8.40;96.70;;;;;;4903435;29;20040;-75
2021/12/01 01:29:21;;;;;;;7.35;3.50;;;8.40;96.70;;;;;;4929282;29;20043;-75
2021/12/01 01:31:51;;;;;;;6.38;3.85;;;8.40;96.70;;;;;;4905020;29;20695;-75
2021/12/01 01:34:22;;;;;;;5.78;2.97;;;8.40;96.70;;;;;;4904636;29;20053;-75
2021/12/01 01:36:50;;;;;;;4.45;3.08;;;8.40;96.70;;;;;;4925291;29;20521;-75
2021/12/01 01:39:19;;;;;;;6.93;3.50;;;8.40;96.70;;;;;;4906942;29;20046;-75
2021/12/01 01:41:47;;;;;;;4.20;2.97;;;8.30;96.70;;;;;;4922194;29;20048;-75
2021/12/01 01:44:15;;;;;;;3.88;2.97;;;8.30;96.70;;;;;;4905736;29;20075;-75
2021/12/01 01:46:44;;;;;;;4.30;2.97;;;8.40;96.70;;;;;;4908128;29;20143;-75
2021/12/01 01:51:43;;;;;;;5.13;2.88;;;8.40;96.70;;;;;;4919672;29;20099;-75
2021/12/01 01:54:11;;;;;;;5.32;3.05;;;8.40;96.70;;;;;;4889962;29;20048;-75
2021/12/01 01:56:41;;;;;;;6.35;3.70;;;8.40;96.70;;;;;;4921372;29;20099;-74
2021/12/01 01:59:09;;;;;;;5.20;3.15;;;8.40;96.70;;;;;;4926350;29;20075;-75
2021/12/01 02:01:44;;;;;;;4.97;3.13;;;8.40;96.70;;;;;;4903646;29;20083;-75
2021/12/01 02:04:15;;;;;;;3.78;2.65;;;8.40;96.70;;;;;;4895444;29;20098;-75
2021/12/01 02:06:47;;;;;;;4.38;2.50;;;8.40;96.70;;;;;;4907082;29;20191;-75
2021/12/01 02:09:19;;;;;;;4.75;2.72;;;8.40;96.70;;;;;;4906590;29;20139;-75
2021/12/01 02:11:48;;;;;;;4.88;2.53;;;8.40;96.70;;;;;;4904535;29;20087;-75
2021/12/01 02:14:16;;;;;;;3.28;2.20;;;8.40;96.70;;;;;;4919838;29;20115;-75
2021/12/01 02:16:45;;;;;;;4.80;2.22;;;8.30;96.70;;;;;;4906162;29;20052;-75
2021/12/01 02:19:13;;;;;;;3.83;2.20;;;8.40;96.70;;;;;;4900391;29;20139;-75
2021/12/01 02:21:43;;;;;;;2.75;1.67;;;8.40;96.70;;;;;;4907105;29;20048;-75
2021/12/01 02:24:13;;;;;;;3.58;2.10;;;8.30;96.70;;;;;;4905490;29;20104;-75
2021/12/01 02:26:44;;;;;;;3.15;2.22;;;8.30;96.70;;;;;;4919554;29;20582;-75
2021/12/01 02:29:14;;;;;;;4.72;2.55;;;8.30;96.70;;;;;;4910678;29;20107;-74
2021/12/01 02:31:43;;;;;;;4.78;2.45;;;8.20;96.70;;;;;;4904070;29;20138;-75
2021/12/01 02:34:14;;;;;;;3.58;2.28;;;8.20;96.70;;;;;;4922189;29;20087;-75
2021/12/01 02:36:45;;;;;;;3.08;2.05;;;8.20;96.70;;;;;;4908859;29;20062;-74
2021/12/01 02:39:16;;;;;;;5.47;2.15;;;8.20;96.70;;;;;;4898598;29;20515;-75
2021/12/01 02:41:50;;;;;;;4.05;2.15;;;8.20;96.70;;;;;;4902679;29;20395;-75
2021/12/01 02:44:18;;;;;;;3.65;1.42;;;8.20;96.70;;;;;;4905041;29;20118;-75
2021/12/01 02:46:48;;;;;;;4.07;1.80;;;8.20;96.70;;;;;;4905192;29;20726;-75
2021/12/01 02:49:19;;;;;;;5.72;1.60;;;8.20;96.70;;;;;;4920374;29;20585;-75
2021/12/01 02:51:51;;;;;;;3.15;1.77;;;8.30;96.70;;;;;;4922637;29;20598;-75
2021/12/01 02:54:19;;;;;;;3.20;1.70;;;8.20;96.70;;;;;;4920538;29;20514;-75
2021/12/01 02:56:50;;;;;;;2.80;1.67;;;8.20;96.70;;;;;;4892416;29;20130;-75
2021/12/01 02:59:18;;;;;;;2.22;1.65;;;8.20;96.70;;;;;;4889459;29;20056;-75
2021/12/01 03:01:46;;;;;;;2.35;1.60;;;8.10;96.70;;;;;;4923054;29;20035;-75
2021/12/01 03:04:15;;;;;;;3.17;1.85;;;8.10;96.70;;;;;;4920060;29;20090;-75
2021/12/01 03:06:45;;;;;;;2.63;1.40;;;8.00;96.70;;;;;;4903103;29;20044;-75
2021/12/01 03:09:15;;;;;;;2.83;1.50;;;8.00;96.70;;;;;;4905210;29;20162;-75
2021/12/01 03:11:44;;;;;;;2.17;1.35;;;8.00;96.70;;;;;;4913389;29;20051;-75
2021/12/01 03:14:15;;;;;;;2.95;1.58;;;8.00;96.70;;;;;;4904039;29;20133;-75
2021/12/01 03:16:45;;;;;;;2.75;1.33;;;8.00;96.70;;;;;;4902264;29;20036;-75
2021/12/01 03:19:14;;;;;;;2.78;1.52;;;8.10;96.70;;;;;;4925546;29;20040;-75
2021/12/01 03:21:47;;;;;;;2.65;1.67;;;8.10;96.70;;;;;;4918353;29;20516;-75
2021/12/01 03:24:19;;;;;;;3.65;1.42;;;8.10;96.70;;;;;;4904465;29;20451;-74
2021/12/01 03:26:47;;;;;;;5.43;3.42;;;8.00;96.70;;;;;;4919204;29;20091;-75
2021/12/01 03:29:16;;;;;;;5.18;3.70;;;8.00;96.70;;;;;;4884106;29;20069;-75
2021/12/01 03:31:44;;;;;;;5.18;3.47;;;8.00;96.70;;;;;;4893153;29;20059;-75
2021/12/01 03:34:13;;;;;;;6.00;3.65;;;8.00;96.70;;;;;;4919245;29;20044;-75
2021/12/01 03:36:42;;;;;;;5.68;3.50;;;8.00;96.70;;;;;;4890825;29;20047;-75
2021/12/01 03:39:10;;;;;;;6.93;3.17;;;8.00;96.70;;;;;;4896804;29;20410;-74
2021/12/01 03:41:40;;;;;;;4.50;3.00;;;8.10;96.70;;;;;;4902725;29;20059;-75
2021/12/01 03:44:09;;;;;;;5.88;3.45;;;8.00;96.70;;;;;;4914376;29;20063;-75
2021/12/01 03:46:37;;;;;;;4.72;3.35;;;8.10;96.70;;;;;;4915856;29;20047;-75
2021/12/01 03:49:06;;;;;;;5.93;3.67;;;8.10;96.70;;;;;;4901557;29;20418;-75
2021/12/01 03:51:34;;;;;;;5.95;3.65;;;8.10;96.70;;;;;;4907349;29;20048;-75
2021/12/01 03:54:03;;;;;;;4.10;3.33;;;8.10;96.70;;;;;;4923477;29;20040;-75
2021/12/01 03:56:33;;;;;;;4.97;3.20;;;8.10;96.70;;;;;;4917538;29;20126;-74
2021/12/01 03:59:04;;;;;;;3.78;2.67;;;8.00;96.70;;;;;;4898286;29;20384;-74
2021/12/01 04:01:33;;;;;;;4.18;2.50;;;8.00;96.70;;;;;;4917909;29;20051;-75
2021/12/01 04:04:02;;;;;;;5.35;2.15;;;8.00;96.70;;;;;;4902049;29;20521;-75
2021/12/01 04:06:30;;;;;;;3.50;1.75;;;8.00;96.70;;;;;;4902355;29;20123;-74
2021/12/01 04:08:59;;;;;;;2.28;1.45;;;7.90;96.70;;;;;;4899109;29;20040;-74
2021/12/01 04:11:27;;;;;;;3.97;1.60;;;8.00;96.70;;;;;;4922980;28;20064;-75
2021/12/01 04:13:56;;;;;;;3.40;1.70;;;7.90;96.70;;;;;;4916385;29;20407;-75
2021/12/01 04:16:26;;;;;;;4.32;1.40;;;7.90;96.70;;;;;;4920376;29;20625;-75
2021/12/01 04:18:55;;;;;;;2.45;1.20;;;7.90;96.70;;;;;;4917815;29;20039;-75
2021/12/01 04:21:25;;;;;;;2.08;1.35;;;8.00;96.70;;;;;;4924130;29;20028;-75
2021/12/01 04:23:54;;;;;;;1.90;1.08;;;8.00;96.70;;;;;;4902271;29;20062;-75
2021/12/01 04:26:26;;;;;;;1.63;1.00;;;8.10;96.70;;;;;;4898517;29;20128;-75
2021/12/01 04:28:56;;;;;;;1.85;1.00;;;8.00;96.70;;;;;;4894936;29;20055;-75
2021/12/01 04:31:29;;;;;;;1.77;1.08;;;8.00;96.70;;;;;;4921177;29;20059;-75
2021/12/01 04:33:58;;;;;;;1.67;0.93;;;8.00;96.70;;;;;;4898436;29;20067;-75
2021/12/01 04:36:37;;;;;;;1.73;1.10;;;8.00;96.70;;;;;;4917004;29;20122;-74
2021/12/01 04:39:08;;;;;;;3.75;1.30;;;8.00;96.70;;;;;;4900317;29;20048;-75
2021/12/01 04:41:42;;;;;;;1.98;1.08;;;7.90;96.70;;;;;;4911416;29;20047;-75
2021/12/01 04:44:12;;;;;;;2.10;1.13;;;7.80;96.70;;;;;;4900333;29;20047;-75
2021/12/01 04:46:46;;;;;;;1.65;0.93;;;7.90;96.70;;;;;;4899350;29;20052;-74
2021/12/01 04:49:18;;;;;;;1.23;0.80;;;7.90;96.70;;;;;;4904806;29;20063;-75
2021/12/01 04:51:49;;;;;;;3.03;1.13;;;7.90;96.70;;;;;;4909265;29;20072;-75
2021/12/01 04:54:18;;;;;;;1.98;0.98;;;7.90;96.70;;;;;;4915149;29;20044;-75
2021/12/01 04:56:47;;;;;;;2.72;1.00;;;7.90;96.70;;;;;;4900389;29;20046;-75
2021/12/01 04:59:16;;;;;;;1.65;0.75;;;7.90;96.70;;;;;;4919325;29;20075;-75
2021/12/01 05:01:48;;;;;;;3.20;1.15;;;7.90;96.70;;;;;;4886220;29;20040;-75
2021/12/01 05:04:16;;;;;;;2.85;0.82;;;8.00;96.70;;;;;;4908789;29;20051;-75
2021/12/01 05:06:45;;;;;;;2.05;0.93;;;8.00;96.70;;;;;;4900629;29;20516;-75
2021/12/01 05:09:14;;;;;;;2.97;1.27;;;8.00;96.70;;;;;;4881288;29;20498;-74
2021/12/01 05:11:42;;;;;;;3.47;1.00;;;8.00;96.70;;;;;;4894497;29;20143;-75
2021/12/01 05:14:12;;;;;;;4.22;1.27;;;8.00;96.70;;;;;;4903480;29;20407;-75
2021/12/01 05:16:41;;;;;;;2.13;1.00;;;8.10;96.70;;;;;;4917302;29;21016;-75
2021/12/01 05:19:12;;;;;;;1.95;1.00;;;8.10;96.70;;;;;;4900841;29;20494;-75
2021/12/01 05:21:41;;;;;;;3.28;1.15;;;8.10;96.70;;;;;;4900358;29;20048;-74
2021/12/01 05:24:09;;;;;;;2.75;1.27;;;8.10;96.70;;;;;;4915237;29;20052;-75
2021/12/01 05:26:38;;;;;;;3.25;1.23;;;8.00;96.70;;;;;;4900048;29;20040;-75
2021/12/01 05:29:07;;;;;;;3.22;1.05;;;8.00;96.70;;;;;;4916409;29;20137;-75
2021/12/01 05:31:35;;;;;;;3.40;1.33;;;7.90;96.70;;;;;;4898689;29;20047;-75
2021/12/01 05:34:04;;;;;;;2.88;1.52;;;7.90;96.70;;;;;;4898098;29;20143;-75
2021/12/01 05:36:33;;;;;;;2.03;1.40;;;7.90;96.70;;;;;;4905857;29;20582;-75
2021/12/01 05:39:02;;;;;;;3.85;1.20;;;8.00;96.70;;;;;;4900878;29;20043;-74
2021/12/01 05:41:31;;;;;;;2.60;1.48;;;8.00;96.70;;;;;;4921361;29;20340;-75
2021/12/01 05:43:59;;;;;;;2.33;1.33;;;8.10;96.70;;;;;;4904864;29;20111;-75
2021/12/01 05:46:33;;;;;;;2.83;1.40;;;8.00;96.70;;;;;;4908526;29;20168;-75
2021/12/01 05:49:02;;;;;;;3.72;1.40;;;8.10;96.70;;;;;;4882865;29;20040;-75
2021/12/01 05:51:30;;;;;;;2.17;1.38;;;8.10;96.70;;;;;;4904475;29;20048;-75
2021/12/01 05:54:03;;;;;;;2.97;1.83;;;8.10;96.70;;;;;;4924067;29;20250;-75
2021/12/01 05:56:31;;;;;;;2.47;1.48;;;8.10;96.70;;;;;;4889280;29;20047;-75
2021/12/01 05:58:59;;;;;;;3.72;1.50;;;8.10;96.70;;;;;;4908622;29;20048;-75
2021/12/01 06:01:28;;;;;;;7.18;2.25;;;8.10;96.70;;;;;;4900508;29;20048;-75
2021/12/01 06:03:56;;;;;;;3.47;1.75;;;8.00;96.70;;;;;;4906303;29;20036;-75
2021/12/01 06:06:25;;;;;;;2.78;1.50;;;8.00;96.70;;;;;;4906378;29;20044;-75
2021/12/01 06:08:53;;;;;;;2.65;1.13;;;8.00;96.70;;;;;;4897840;29;20595;-74
2021/12/01 06:11:23;;;;;;;3.17;1.20;;;8.00;96.70;;;;;;4901469;29;20047;-75
2021/12/01 06:13:53;;;;;;;3.08;1.00;;;8.00;96.70;;;;;;4919823;29;20487;-75
2021/12/01 06:16:23;;;;;;;3.22;1.00;;;8.00;96.70;;;;;;4921629;29;20040;-75
2021/12/01 06:18:51;;;;;;;2.42;1.25;;;7.90;96.70;;;;;;4925023;29;20476;-75
2021/12/01 06:21:20;;;;;;;4.45;1.00;;;8.00;96.70;;;;;;4902141;29;20672;-75
2021/12/01 06:23:48;;;;;;;4.28;1.40;;;7.90;96.70;;;;;;4902841;29;20028;-76
2021/12/01 06:26:16;;;;;;;2.83;1.00;;;7.90;96.70;;;;;;4902837;29;20715;-75
2021/12/01 06:28:46;;;;;;;3.92;1.95;;;8.00;96.70;;;;;;4900912;29;20241;-75
2021/12/01 06:31:15;;;;;;;2.05;1.38;;;8.00;96.70;;;;;;4900500;29;20063;-76
2021/12/01 06:33:44;;;;;;;4.15;1.45;;;8.00;96.70;;;;;;4905550;29;20043;-76
2021/12/01 06:36:12;;;;;;;3.22;1.30;;;8.10;96.70;;;;;;4898526;29;20159;-75
2021/12/01 06:38:41;;;;;;;3.13;1.38;;;8.10;96.70;;;;;;4904619;29;20092;-75
2021/12/01 06:41:10;;;;;;;2.90;1.30;;;8.20;96.70;;;;;;4909442;29;20502;-75
2021/12/01 06:43:38;;;;;;;2.72;1.33;;;8.20;96.70;;;;;;4917718;29;20052;-75
2021/12/01 06:46:12;;;;;;;3.42;1.70;;;8.10;96.70;;;;;;4905420;29;20094;-75
2021/12/01 06:48:41;;;;;;;4.97;1.90;;;8.10;96.70;;;;;;4921160;29;20039;-75
2021/12/01 06:51:09;;;;;;;2.30;1.40;;;8.10;96.70;;;;;;4896790;29;20127;-75
2021/12/01 06:53:38;;;;;;;3.88;1.38;;;8.10;96.70;;;;;;4901165;29;20069;-75
2021/12/01 06:56:06;;;;;;;1.80;1.33;;;8.00;96.70;;;;;;4901629;29;20477;-77
2021/12/01 06:58:35;;;;;;;4.70;1.45;;;7.90;96.70;;;;;;4897695;29;20055;-76
2021/12/01 07:01:05;;;;;;;4.03;1.85;;;7.90;96.70;;;;;;4914378;29;20044;-75
2021/12/01 07:03:35;;;;;;;3.25;1.45;;;8.00;96.70;;;;;;4917775;29;20051;-76
2021/12/01 07:06:03;;;;;;;2.58;1.40;;;8.00;96.70;;;;;;4907059;29;20581;-75
2021/12/01 07:08:32;;;;;;;2.97;1.27;;;8.00;96.70;;;;;;4902053;29;20046;-76
2021/12/01 07:11:01;;;;;;;7.68;1.98;;;8.00;96.70;;;;;;4905000;29;20055;-76
2021/12/01 07:13:32;;;;;;;2.63;1.58;;;7.90;96.70;;;;;;4917753;29;20040;-76
2021/12/01 07:16:00;;;;;;;3.30;1.42;;;7.90;96.70;;;;;;4900473;29;20044;-76
2021/12/01 07:18:28;;;;;;;4.95;3.05;;;7.90;96.70;;;;;;4920016;29;20108;-76
2021/12/01 07:20:58;;;;;;;6.68;2.80;;;7.90;96.70;;;;;;4904043;29;20506;-76
2021/12/01 07:23:26;;;;;;;4.75;2.00;;;7.90;96.70;;;;;;4901967;29;20044;-77
2021/12/01 07:26:00;;;;;;;3.05;1.90;;;7.80;96.70;;;;;;4901916;29;20143;-77
2021/12/01 07:28:28;;;;;;;3.85;1.60;;;7.80;96.70;;;;;;4922389;29;20054;-77
2021/12/01 07:30:56;;;;;;;4.80;1.95;;;7.90;96.70;;;;;;4890245;29;20067;-78
2021/12/01 07:33:29;;;;;;;2.17;1.20;;;7.90;96.70;;;;;;4896928;29;20051;-76
2021/12/01 07:35:58;;;;;;;4.22;2.08;;;7.80;96.70;;;;;;4918956;29;20059;-75
2021/12/01 07:38:26;;;;;;;6.03;1.50;;;7.80;96.70;;;;;;4920446;29;20047;-77
2021/12/01 07:40:54;;;;;;;4.63;1.65;;;7.90;96.70;;;;;;4901904;29;20047;-77
2021/12/01 07:43:22;;;;;;;3.63;1.55;;;7.90;96.70;;;;;;4908429;29;20551;-76
2021/12/01 07:45:50;;;;;;;4.57;1.60;;;7.90;96.70;;;;;;4920041;29;20801;-76
2021/12/01 07:48:18;;;;;;;2.20;1.30;;;7.90;96.70;;;;;;4887600;29;20094;-77
2021/12/01 07:50:46;;;;;;;3.78;1.52;;;7.90;96.70;;;;;;4899529;29;20043;-77
2021/12/01 07:53:16;;;;;;;3.25;1.67;;;7.90;96.70;;;;;;4893677;29;20427;-77
2021/12/01 07:55:44;;;;;;;2.85;1.48;;;8.00;96.70;;;;;;4906458;29;20056;-77
2021/12/01 07:58:12;;;;;;;4.90;1.92;;;8.00;96.70;;;;;;4902438;29;20047;-75
2021/12/01 08:00:40;;;;;;;3.60;1.65;;;8.10;96.70;;;;;;4902883;29;20053;-75
2021/12/01 08:03:08;;;;;;;5.75;1.75;;;8.00;96.70;;;;;;4919678;29;20090;-75
2021/12/01 08:05:36;;;;;;;3.50;1.50;;;8.10;96.70;;;;;;4906821;29;20138;-77
2021/12/01 08:08:05;;;;;;;4.45;1.60;;;8.00;96.70;;;;;;4887072;29;20047;-77
2021/12/01 08:10:35;;;;;;;4.18;1.90;;;8.00;96.70;;;;;;4921439;29;20403;-77
2021/12/01 08:13:04;;;;;;;5.38;2.22;;;8.10;96.70;;;;;;4897453;29;20052;-75
2021/12/01 08:15:48;;;;;;;5.22;2.42;;;8.10;96.70;;;;;;4911698;29;20052;-77
2021/12/01 08:18:17;;;;;;;3.83;2.35;;;8.20;96.70;;;;;;4901079;29;20553;-75
2021/12/01 08:20:46;;;;;;;7.32;2.38;;;8.20;96.70;;;;;;4920579;29;20043;-75
2021/12/01 08:23:14;;;;;;;6.55;3.33;;;8.20;96.70;;;;;;4918400;29;20867;-75
2021/12/01 08:25:44;;;;;;;7.40;3.10;;;8.20;96.70;;;;;;4884690;29;20044;-77
2021/12/01 08:28:12;;;;;;;4.47;2.40;;;8.20;96.70;;;;;;4900726;29;20054;-77
2021/12/01 08:30:40;;;;;;;5.05;2.20;;;8.30;96.70;;;;;;4900680;29;20604;-76
2021/12/01 08:33:08;;;;;;;5.10;2.88;;;8.20;96.70;;;;;;4901884;29;20499;-77
2021/12/01 08:35:36;;;;;;;4.13;2.53;;;8.20;96.70;;;;;;4903243;29;20506;-77
2021/12/01 08:38:04;;;;;;;6.43;3.45;;;8.30;96.70;;;;;;4898458;29;20395;-77
2021/12/01 08:40:33;;;;;;;6.43;2.53;;;8.30;96.70;;;;;;4905565;29;20040;-78
2021/12/01 08:43:03;;;;;;;4.93;2.38;;;8.30;96.70;;;;;;4896050;29;20048;-78
2021/12/01 08:45:32;;;;;;;8.32;2.42;;;8.30;96.70;;;;;;4900786;29;20095;-77
2021/12/01 08:48:01;;;;;;;3.95;2.13;;;8.30;96.70;;;;;;4917158;29;20082;-77
2021/12/01 08:50:29;;;;;;;6.30;2.70;;;8.20;96.70;;;;;;4901243;29;20455;-77
2021/12/01 08:52:58;;;;;;;4.32;2.35;;;8.30;96.70;;;;;;4903713;29;20067;-77
2021/12/01 08:55:27;;;;;;;4.88;2.13;;;8.30;96.70;;;;;;4919568;29;20107;-77
2021/12/01 08:58:09;;;;;;;4.05;2.22;;;8.30;96.70;;;;;;4916243;29;20096;-76
2021/12/01 09:00:43;;;;;;;3.42;2.20;;;8.30;96.70;;;;;;4905366;29;20094;-76
2021/12/01 09:03:12;;;;;;;4.30;2.08;;;8.30;96.70;;;;;;4897789;29;20047;-77
2021/12/01 09:05:42;;;;;;;4.18;2.05;;;8.30;96.70;;;;;;4903146;29;20048;-76
2021/12/01 09:08:11;;;;;;;6.30;2.55;;;8.30;96.70;;;;;;4904959;29;20521;-77
2021/12/01 09:10:39;;;;;;;3.95;1.95;;;8.30;96.70;;;;;;4903094;29;20052;-77
2021/12/01 09:13:09;;;;;;;4.80;2.30;;;8.30;96.70;;;;;;4895860;29;20114;-77
2021/12/01 09:15:38;;;;;;;5.05;2.42;;;8.30;96.70;;;;;;4901218;29;20570;-77
2021/12/01 09:18:06;;;;;;;5.38;2.97;;;8.20;96.70;;;;;;4901625;29;20053;-77
2021/12/01 09:20:34;;;;;;;6.45;2.90;;;8.20;96.70;;;;;;4899353;29;20093;-76
2021/12/01 09:23:03;;;;;;;7.07;3.35;;;8.20;96.70;;;;;;4895920;29;20132;-76
2021/12/01 09:25:31;;;;;;;4.55;2.45;;;8.10;96.70;;;;;;4905829;29;20072;-77
2021/12/01 09:28:15;;;;;;;7.13;2.70;;;8.20;96.70;;;;;;4899826;29;20448;-76
2021/12/01 09:30:44;;;;;;;8.98;2.80;;;8.10;96.70;;;;;;4894805;29;20179;-76
2021/12/01 09:33:13;;;;;;;6.40;3.20;;;8.20;96.70;;;;;;4896693;29;20620;-75
2021/12/01 09:35:43;;;;;;;5.35;2.92;;;8.20;96.70;;;;;;4900165;29;20574;-75
2021/12/01 09:38:14;;;;;;;4.20;2.72;;;8.20;96.70;;;;;;4898367;29;20062;-76
2021/12/01 09:40:46;;;;;;;5.80;3.50;;;8.30;96.70;;;;;;4897328;29;20059;-76
2021/12/01 09:43:18;;;;;;;7.30;3.65;;;8.30;96.70;;;;;;4897945;29;20151;-76
2021/12/01 09:45:47;;;;;;;7.13;3.63;;;8.20;96.70;;;;;;4898934;29;20461;-76
2021/12/01 09:48:15;;;;;;;6.97;3.28;;;8.20;96.70;;;;;;4899787;29;20088;-76
2021/12/01 09:50:54;;;;;;;7.95;3.10;;;8.30;96.70;;;;;;4897029;29;20453;-76
2021/12/01 09:53:22;;;;;;;5.78;2.75;;;8.20;96.70;;;;;;4897390;29;20047;-75
2021/12/01 09:55:51;;;;;;;4.75;2.63;;;8.20;96.70;;;;;;4899949;29;20053;-75
2021/12/01 09:58:23;;;;;;;5.13;2.88;;;8.20;96.70;;;;;;4881551;29;20060;-76
2021/12/01 10:00:54;;;;;;;5.03;2.65;;;8.20;96.70;;;;;;4902569;29;20140;-75
2021/12/01 10:03:23;;;;;;;5.05;2.78;;;8.20;96.70;;;;;;4895869;29;20052;-75
2021/12/01 10:06:13;;;;;;;4.13;2.42;;;8.20;96.70;;;;;;4881671;29;20060;-75
2021/12/01 10:08:44;;;;;;;6.68;2.72;;;8.20;96.70;;;;;;4899825;29;20044;-75
2021/12/01 10:11:15;;;;;;;5.80;2.47;;;8.30;96.70;;;;;;4899178;29;20104;-75
2021/12/01 10:13:48;;;;;;;3.72;2.30;;;8.20;96.70;;;;;;4914242;29;20043;-74
2021/12/01 10:16:18;;;;;;;3.92;2.67;;;8.30;96.70;;;;;;4885224;29;20102;-75
2021/12/01 10:18:47;;;;;;;6.65;3.70;;;8.20;96.70;;;;;;4901118;29;20373;-75
2021/12/01 10:21:18;;;;;;;5.68;3.10;;;8.30;96.70;;;;;;4905720;29;20137;-77
2021/12/01 10:23:48;;;;;;;7.40;3.60;;;8.30;96.70;;;;;;4896364;29;20036;-75
2021/12/01 10:26:19;;;;;;;5.50;3.08;;;8.20;96.70;;;;;;4905983;29;20047;-76
2021/12/01 10:28:50;;;;;;;7.55;3.50;;;8.30;96.70;;;;;;4904853;29;20068;-76
2021/12/01 10:31:34;;;;;;;5.57;3.50;;;8.20;96.70;;;;;;4919823;29;20058;-76
2021/12/01 10:34:20;;;;;;;4.90;3.38;;;8.30;96.70;;;;;;4919516;29;20051;-76
2021/12/01 10:37:05;;;;;;;5.97;3.72;;;8.30;96.70;;;;;;4900614;29;20044;-76
2021/12/01 10:39:33;;;;;;;6.15;3.97;;;8.30;96.70;;;;;;4902933;29;20232;-76
2021/12/01 10:42:04;;;;;;;9.27;6.00;;;8.30;96.70;;;;;;4903334;29;20051;-76
2021/12/01 10:44:34;;;;;;;13.52;8.63;;;8.40;96.70;;;;;;4887417;29;20043;-75
2021/12/01 10:47:09;;;;;;;8.80;5.50;;;8.40;96.70;;;;;;4904709;29;20422;-77
2021/12/01 10:49:42;;;;;;;6.32;5.18;;;8.50;96.70;;;;;;4922869;29;20519;-76
2021/12/01 10:52:30;;;;;;;7.85;5.30;;;8.50;96.70;;;;;;4917020;29;20059;-76
2021/12/01 10:55:05;;;;;;;7.57;4.95;;;8.50;96.70;;;;;;4920735;29;20075;-76
2021/12/01 10:57:38;;;;;;;8.30;4.47;;;8.50;96.70;;;;;;4917814;29;20110;-76
2021/12/01 11:00:15;;;;;;;4.97;3.63;;;8.50;96.70;;;;;;4904840;29;20056;-76
2021/12/01 11:02:43;;;;;;;6.05;4.10;;;8.50;96.70;;;;;;4923039;29;20039;-77
2021/12/01 11:05:25;;;;;;;6.93;4.10;;;8.50;96.70;;;;;;4900702;29;20051;-76
2021/12/01 11:07:53;;;;;;;6.15;4.43;;;8.50;96.70;;;;;;4918717;29;20052;-76
2021/12/01 11:10:25;;;;;;;5.15;4.05;;;8.50;96.70;;;;;;4907958;29;20928;-75
2021/12/01 11:12:57;;;;;;;6.70;3.95;;;8.50;96.70;;;;;;4899863;29;20071;-75
2021/12/01 11:15:29;;;;;;;6.38;4.57;;;8.50;96.70;;;;;;4919656;29;20056;-76
2021/12/01 11:18:18;;;;;;;6.47;4.03;;;8.50;96.70;;;;;;4916289;29;20051;-75
2021/12/01 11:21:08;;;;;;;9.73;5.47;;;8.50;96.70;;;;;;4917852;29;20135;-75
2021/12/01 11:23:38;;;;;;;8.00;4.70;;;8.50;96.70;;;;;;4902374;29;20051;-75
2021/12/01 11:26:09;;;;;;;6.45;5.30;;;8.50;96.70;;;;;;4905008;29;20086;-76
2021/12/01 11:28:40;;;;;;;7.85;5.00;;;8.50;96.70;;;;;;4900241;29;20119;-75
2021/12/01 11:31:13;;;;;;;6.95;4.00;;;8.50;96.70;;;;;;4911568;29;20411;-75
2021/12/01 11:33:44;;;;;;;8.23;5.25;;;8.50;96.70;;;;;;4913751;29;20056;-75
2021/12/01 11:36:15;;;;;;;7.35;3.78;;;8.60;96.70;;;;;;4918207;29;20040;-75
2021/12/01 11:38:47;;;;;;;10.02;6.65;;;8.60;96.70;;;;;;4920614;29;20050;-76
2021/12/01 11:41:16;;;;;;;8.00;4.57;;;8.60;96.70;;;;;;4908417;29;20534;-76
2021/12/01 11:43:46;;;;;;;7.00;4.50;;;8.50;96.70;;;;;;4906254;29;20429;-76
2021/12/01 11:46:16;;;;;;;9.07;5.57;;;8.70;96.70;;;;;;4897561;29;20083;-75
2021/12/01 11:48:49;;;;;;;6.95;4.47;;;8.80;96.70;;;;;;4894119;29;20050;-75
2021/12/01 11:51:21;;;;;;;9.07;5.20;;;8.80;96.70;;;;;;4896484;29;20380;-75
2021/12/01 11:53:52;;;;;;;7.78;4.50;;;8.80;96.70;;;;;;4884449;29;20048;-75
2021/12/01 11:56:26;;;;;;;6.97;3.83;;;8.80;96.70;;;;;;4917103;29;20122;-75
2021/12/01 11:59:04;;;;;;;6.10;4.32;;;8.80;96.70;;;;;;4897317;29;20098;-75
2021/12/01 12:01:39;;;;;;;7.22;4.50;;;8.90;96.70;;;;;;4880501;29;20145;-75
2021/12/01 12:04:27;;;;;;;6.93;4.05;;;9.00;96.70;;;;;;4920915;29;20044;-75
2021/12/01 12:07:02;;;;;;;7.63;4.93;;;9.00;96.70;;;;;;4905559;29;20487;-75
2021/12/01 12:10:19;;;;;;;8.30;4.88;;;9.00;96.70;;;;;;4892506;29;20396;-75
2021/12/01 12:13:04;;;;;;;7.50;6.35;;;8.90;96.70;;;;;;4858533;29;20096;-76
2021/12/01 12:15:41;;;;;;;9.48;6.63;;;9.10;96.70;;;;;;4873026;29;20059;-75
2021/12/01 12:18:14;;;;;;;9.13;6.68;;;9.30;96.70;;;;;;4851471;29;20057;-75
2021/12/01 12:20:53;;;;;;;8.68;5.40;;;9.30;96.70;;;;;;4876062;29;20197;-75
2021/12/01 12:23:33;;;;;;;7.40;4.80;;;9.20;96.70;;;;;;4872416;29;20155;-76
2021/12/01 12:26:02;;;;;;;8.55;5.55;;;9.10;96.70;;;;;;4861888;29;20604;-76
2021/12/01 12:28:35;;;;;;;9.38;6.63;;;9.10;96.70;;;;;;4869021;29;20057;-75
2021/12/01 12:31:06;;;;;;;10.00;6.10;;;9.10;96.70;;;;;;4860441;29;20086;-75
2021/12/01 12:33:48;;;;;;;8.90;4.93;;;9.10;96.70;;;;;;4862271;29;20121;-76
2021/12/01 12:36:16;;;;;;;7.43;4.93;;;9.00;96.70;;;;;;4872048;29;20044;-76
2021/12/01 12:39:03;;;;;;;10.05;5.65;;;9.10;96.70;;;;;;4869384;29;20045;-75
2021/12/01 12:41:32;;;;;;;;;;;9.40;96.70;;;;;;4869347;29;20222;-76
2021/12/01 12:44:27;;;;;;;8.88;5.20;;;9.60;96.70;;;;;;4862152;29;19951;-76
2021/12/01 12:47:01;;;;;;;8.55;5.80;;;9.70;96.70;;;;;;4885173;29;20462;-75
2021/12/01 12:49:42;;;;;;;8.18;5.32;;;9.80;96.70;;;;;;4923071;29;20501;-76
2021/12/01 12:52:43;;;;;;;8.23;4.70;;;9.80;96.70;;;;;;4911999;29;20047;-75
2021/12/01 12:55:37;;;;;;;8.07;5.65;;;9.80;96.70;;;;;;4849106;29;20625;-76
2021/12/01 12:58:08;;;;;;;8.85;5.43;;;9.70;96.70;;;;;;4861730;29;20061;-76
2021/12/01 13:00:45;;;;;;;6.95;4.93;;;9.60;96.70;;;;;;4865831;29;20065;-75
2021/12/01 13:03:39;;;;;;;;;;;9.50;96.70;;;;;;4851751;29;20077;-74
2021/12/01 13:06:26;;;;;;;6.93;4.72;;;9.40;96.70;;;;;;4848505;29;19974;-75
2021/12/01 13:09:13;;;;;;;8.85;6.82;;;9.40;96.70;;;;;;4864050;29;20611;-75
2021/12/01 13:11:41;;;;;;;19.98;11.77;;;9.50;96.70;;;;;;4846865;29;20053;-75
2021/12/01 13:14:10;;;;;;;9.88;6.07;;;9.50;96.70;;;;;;4864649;29;20100;-74
2021/12/01 13:16:39;;;;;;;8.93;6.32;;;9.50;96.70;;;;;;4849331;29;20532;-74
2021/12/01 13:19:08;;;;;;;8.85;6.43;;;9.50;96.70;;;;;;4849823;29;20061;-75
2021/12/01 13:21:39;;;;;;;9.25;6.45;;;9.40;96.70;;;;;;4849725;29;20053;-75
2021/12/01 13:24:07;;;;;;;8.20;6.45;;;9.40;96.70;;;;;;4864818;29;20595;-74
2021/12/01 13:26:37;;;;;;;8.25;5.88;;;9.40;96.70;;;;;;4886388;29;20590;-75